createdAt,value
2022-12-08T06:03:50.971Z,987.65
2022-12-08T06:04:51.996Z,987.68
2022-12-08T06:05:52.065Z,987.65
2022-12-08T06:06:52.088Z,987.60
2022-12-08T06:07:51.981Z,987.61
2022-12-08T06:08:52.051Z,987.64
2022-12-08T06:09:52.034Z,987.61
2022-12-08T06:10:52.025Z,987.59
2022-12-08T06:11:52.020Z,987.66
2022-12-08T06:12:51.984Z,987.67
2022-12-08T06:13:52.049Z,987.69
2022-12-08T06:14:52.039Z,987.61
2022-12-08T06:15:51.994Z,987.67
2022-12-08T06:16:52.013Z,987.66
2022-12-08T06:17:52.056Z,987.71
2022-12-08T06:18:51.961Z,987.63
2022-12-08T06:19:52.038Z,987.66
2022-12-08T06:20:51.959Z,987.67
2022-12-08T06:21:51.881Z,987.69
2022-12-08T06:22:51.817Z,987.64
2022-12-08T06:23:51.836Z,987.66
2022-12-08T06:24:51.843Z,987.64
2022-12-08T06:25:51.825Z,987.63
2022-12-08T06:26:51.850Z,987.61
2022-12-08T06:27:51.777Z,987.53
2022-12-08T06:28:51.795Z,987.63
2022-12-08T06:29:51.851Z,987.59
2022-12-08T06:30:51.829Z,987.60
2022-12-08T06:31:51.877Z,987.60
2022-12-08T06:32:51.770Z,987.49
2022-12-08T06:33:51.827Z,987.45
2022-12-08T06:34:51.850Z,987.51
2022-12-08T06:35:51.917Z,987.56
2022-12-08T06:36:51.912Z,987.48
2022-12-08T06:37:51.823Z,987.53
2022-12-08T06:38:51.811Z,987.53
2022-12-08T06:39:51.894Z,987.52
2022-12-08T06:40:51.764Z,987.55
2022-12-08T06:41:51.784Z,987.52
2022-12-08T06:42:51.824Z,987.60
2022-12-08T06:43:51.728Z,987.60
2022-12-08T06:44:51.787Z,987.57
2022-12-08T06:45:51.881Z,987.53
2022-12-08T06:46:51.759Z,987.51
2022-12-08T06:47:51.754Z,987.58
2022-12-08T06:48:51.773Z,987.57
2022-12-08T06:49:51.750Z,987.56
2022-12-08T06:50:51.822Z,987.44
2022-12-08T06:51:51.692Z,987.50
2022-12-08T06:53:02.805Z,987.46
2022-12-08T06:53:53.734Z,987.50
2022-12-08T06:54:51.688Z,987.48
2022-12-08T06:55:59.128Z,987.51
2022-12-08T06:56:53.715Z,987.53
2022-12-08T06:57:54.079Z,987.54
2022-12-08T06:58:53.224Z,987.50
2022-12-08T06:59:52.698Z,987.50
2022-12-08T07:00:51.644Z,987.51
2022-12-08T07:01:51.634Z,987.41
2022-12-08T07:02:51.652Z,987.40
2022-12-08T07:03:51.556Z,987.51
2022-12-08T07:04:51.930Z,987.47
2022-12-08T07:05:51.528Z,987.48
2022-12-08T07:06:51.561Z,987.48
2022-12-08T07:07:51.686Z,987.49
2022-12-08T07:08:51.658Z,987.48
2022-12-08T07:09:51.657Z,987.45
2022-12-08T07:10:51.589Z,987.50
2022-12-08T07:11:51.648Z,987.44
2022-12-08T07:12:51.582Z,987.44
2022-12-08T07:13:51.683Z,987.47
2022-12-08T07:14:51.639Z,987.51
2022-12-08T07:15:51.570Z,987.49
2022-12-08T07:16:51.638Z,987.45
2022-12-08T07:17:56.315Z,987.45
2022-12-08T07:18:53.537Z,987.45
2022-12-08T07:19:51.529Z,987.51
2022-12-08T07:20:51.521Z,987.45
2022-12-08T07:21:51.517Z,987.47
2022-12-08T07:22:51.504Z,987.49
2022-12-08T07:23:57.354Z,987.50
2022-12-08T07:24:53.445Z,987.45
2022-12-08T07:25:51.398Z,987.46
2022-12-08T07:26:51.496Z,987.50
2022-12-08T07:27:51.444Z,987.48
2022-12-08T07:28:51.433Z,987.51
2022-12-08T07:29:51.465Z,987.50
2022-12-08T07:30:51.531Z,987.47
2022-12-08T07:31:51.512Z,987.46
2022-12-08T07:32:51.478Z,987.53
2022-12-08T07:33:51.418Z,987.47
2022-12-08T07:34:51.480Z,987.55
2022-12-08T07:35:51.406Z,987.43
2022-12-08T07:37:24.628Z,987.47
2022-12-08T07:37:51.403Z,987.54
2022-12-08T07:38:51.410Z,987.52
2022-12-08T07:39:51.468Z,987.50
2022-12-08T07:40:51.354Z,987.47
2022-12-08T07:41:52.399Z,987.50
2022-12-08T07:42:52.427Z,987.46
2022-12-08T07:43:51.343Z,987.48
2022-12-08T07:44:52.349Z,987.44
2022-12-08T07:45:51.358Z,987.47
2022-12-08T07:47:24.328Z,987.47
2022-12-08T07:47:51.225Z,987.52
2022-12-08T07:48:51.374Z,987.49
2022-12-08T07:49:51.352Z,987.47
2022-12-08T07:50:51.285Z,987.46
2022-12-08T07:51:51.322Z,987.42
2022-12-08T07:52:51.284Z,987.32
2022-12-08T07:53:54.079Z,987.42
2022-12-08T07:54:52.247Z,987.41
2022-12-08T07:55:51.310Z,987.40
2022-12-08T07:56:51.286Z,987.36
2022-12-08T07:57:51.333Z,987.36
2022-12-08T07:58:51.183Z,987.34
2022-12-08T07:59:51.205Z,987.30
2022-12-08T08:00:51.246Z,987.40
2022-12-08T08:02:06.571Z,987.46
2022-12-08T08:02:53.273Z,987.36
2022-12-08T08:03:51.176Z,987.42
2022-12-08T08:04:51.653Z,987.42
2022-12-08T08:05:51.136Z,987.35
2022-12-08T08:06:51.123Z,987.37
2022-12-08T08:07:51.125Z,987.36
2022-12-08T08:08:51.086Z,987.36
2022-12-08T08:09:51.085Z,987.33
2022-12-08T08:10:51.130Z,987.33
2022-12-08T08:12:14.302Z,987.28
2022-12-08T08:12:53.087Z,987.27
2022-12-08T08:14:24.359Z,987.33
2022-12-08T08:14:51.113Z,987.25
2022-12-08T08:15:51.270Z,987.27
2022-12-08T08:16:51.233Z,987.26
2022-12-08T08:19:48.414Z,987.31
2022-12-08T08:21:47.181Z,987.34
2022-12-08T08:24:09.706Z,987.37
2022-12-08T08:25:10.855Z,987.37
2022-12-08T08:26:10.854Z,987.29
2022-12-08T08:27:10.860Z,987.30
2022-12-08T08:28:10.831Z,987.34
2022-12-08T08:29:10.812Z,987.30
2022-12-08T08:30:12.993Z,987.29
2022-12-08T08:31:11.838Z,987.29
2022-12-08T08:32:10.825Z,987.34
2022-12-08T08:35:19.982Z,987.27
2022-12-08T08:36:21.228Z,987.26
2022-12-08T08:37:21.322Z,987.26
2022-12-08T08:38:21.406Z,987.32
2022-12-08T08:41:29.365Z,987.25
2022-12-08T08:42:30.685Z,987.22
2022-12-08T08:43:37.578Z,987.28
2022-12-08T08:44:32.651Z,987.31
2022-12-08T08:45:30.626Z,987.35
2022-12-08T08:46:30.687Z,987.28
2022-12-08T08:47:30.630Z,987.23
2022-12-08T08:48:30.602Z,987.31
2022-12-08T08:50:04.052Z,987.30
2022-12-08T08:50:35.892Z,987.34
2022-12-08T08:51:32.635Z,987.25
2022-12-08T08:52:30.460Z,987.29
2022-12-08T08:53:30.513Z,987.25
2022-12-08T08:54:30.453Z,987.27
2022-12-08T08:55:30.433Z,987.32
2022-12-08T08:56:30.442Z,987.24
2022-12-08T08:57:30.784Z,987.28
2022-12-08T08:58:30.503Z,987.29
2022-12-08T08:59:30.459Z,987.33
2022-12-08T09:00:30.639Z,987.20
2022-12-08T09:01:30.733Z,987.18
2022-12-08T09:02:30.526Z,987.24
2022-12-08T09:03:30.599Z,987.27
2022-12-08T09:04:30.540Z,987.28
2022-12-08T09:05:30.434Z,987.26
2022-12-08T09:06:30.592Z,987.20
2022-12-08T09:07:30.519Z,987.31
2022-12-08T09:08:30.553Z,987.29
2022-12-08T09:09:30.490Z,987.26
2022-12-08T09:10:30.463Z,987.24
2022-12-08T09:11:30.450Z,987.30
2022-12-08T09:12:30.442Z,987.32
2022-12-08T09:13:30.488Z,987.32
2022-12-08T09:14:30.540Z,987.25
2022-12-08T09:15:30.421Z,987.29
2022-12-08T09:16:34.146Z,987.30
2022-12-08T09:17:31.429Z,987.27
2022-12-08T09:18:30.481Z,987.25
2022-12-08T09:19:30.414Z,987.21
2022-12-08T09:20:30.413Z,987.33
2022-12-08T09:21:30.395Z,987.26
2022-12-08T09:22:30.352Z,987.26
2022-12-08T09:23:35.222Z,987.27
2022-12-08T09:24:32.341Z,987.27
2022-12-08T09:25:30.336Z,987.28
2022-12-08T09:26:30.399Z,987.32
2022-12-08T09:27:30.364Z,987.21
2022-12-08T09:28:30.435Z,987.25
2022-12-08T09:29:35.656Z,987.27
2022-12-08T09:32:34.466Z,987.33
2022-12-08T09:33:35.694Z,987.35
2022-12-08T09:34:35.718Z,987.23
2022-12-08T09:35:35.588Z,987.26
2022-12-08T09:36:35.646Z,987.25
2022-12-08T09:37:35.578Z,987.26
2022-12-08T09:38:35.588Z,987.28
2022-12-08T09:39:35.616Z,987.19
2022-12-08T09:40:35.584Z,987.22
2022-12-08T09:41:39.290Z,987.21
2022-12-08T09:43:04.094Z,987.21
2022-12-08T09:43:35.519Z,987.25
2022-12-08T09:44:35.559Z,987.27
2022-12-08T09:45:35.687Z,987.25
2022-12-08T09:46:35.604Z,987.27
2022-12-08T09:47:36.427Z,987.21
2022-12-08T09:48:36.564Z,987.30
2022-12-08T09:49:35.538Z,987.26
2022-12-08T09:50:35.580Z,987.24
2022-12-08T09:51:35.727Z,987.23
2022-12-08T09:52:35.706Z,987.16
2022-12-08T09:53:36.286Z,987.18
2022-12-08T09:54:36.580Z,987.17
2022-12-08T09:55:35.587Z,987.13
2022-12-08T09:58:43.729Z,987.14
2022-12-08T09:59:44.924Z,986.96
2022-12-08T10:00:44.864Z,987.01
2022-12-08T10:01:44.974Z,987.01
2022-12-08T10:02:44.837Z,986.95
2022-12-08T10:03:45.002Z,987.01
2022-12-08T10:04:44.991Z,987.05
2022-12-08T10:05:45.019Z,986.96
2022-12-08T10:06:44.897Z,986.94
2022-12-08T10:07:45.054Z,986.92
2022-12-08T10:08:44.896Z,986.96
2022-12-08T10:09:45.001Z,986.93
2022-12-08T10:10:44.909Z,986.91
2022-12-08T10:11:44.980Z,986.86
2022-12-08T10:12:44.894Z,986.93
2022-12-08T10:13:44.946Z,986.85
2022-12-08T10:14:45.009Z,986.72
2022-12-08T10:15:45.026Z,986.81
2022-12-08T10:16:44.959Z,986.78
2022-12-08T10:17:44.877Z,986.81
2022-12-08T10:18:44.973Z,986.80
2022-12-08T10:19:44.882Z,986.87
2022-12-08T10:20:44.884Z,986.87
2022-12-08T10:21:44.937Z,986.84
2022-12-08T10:22:45.250Z,986.78
2022-12-08T10:23:45.882Z,986.75
2022-12-08T10:24:44.870Z,986.83
2022-12-08T10:25:44.828Z,986.68
2022-12-08T10:26:44.848Z,986.80
2022-12-08T10:28:17.749Z,986.78
2022-12-08T10:28:45.665Z,986.77
2022-12-08T10:29:45.721Z,986.74
2022-12-08T10:32:42.927Z,986.73
2022-12-08T10:33:44.219Z,986.78
2022-12-08T10:34:44.118Z,986.80
2022-12-08T10:35:44.203Z,986.78
2022-12-08T10:39:28.599Z,986.72
2022-12-08T10:40:29.976Z,986.71
2022-12-08T10:41:29.879Z,986.73
2022-12-08T10:42:29.924Z,986.70
2022-12-08T10:43:29.939Z,986.74
2022-12-08T10:44:29.903Z,986.72
2022-12-08T10:45:29.889Z,986.69
2022-12-08T10:46:29.933Z,986.66
2022-12-08T10:47:29.877Z,986.60
2022-12-08T10:48:29.864Z,986.62
2022-12-08T10:49:29.866Z,986.69
2022-12-08T10:50:30.108Z,986.56
2022-12-08T10:51:29.798Z,986.68
2022-12-08T10:52:29.740Z,986.55
2022-12-08T10:53:29.981Z,986.69
2022-12-08T10:54:29.724Z,986.69
2022-12-08T10:55:29.711Z,986.54
2022-12-08T10:56:29.719Z,986.57
2022-12-08T10:57:29.718Z,986.50
2022-12-08T10:58:29.663Z,986.59
2022-12-08T10:59:29.755Z,986.54
2022-12-08T11:00:29.980Z,986.52
2022-12-08T11:01:30.846Z,986.52
2022-12-08T11:02:29.846Z,986.57
2022-12-08T11:03:29.778Z,986.59
2022-12-08T11:04:29.737Z,986.62
2022-12-08T11:05:29.635Z,986.56
2022-12-08T11:06:29.779Z,986.54
2022-12-08T11:07:29.726Z,986.55
2022-12-08T11:08:29.782Z,986.55
2022-12-08T11:09:29.791Z,986.50
2022-12-08T11:10:29.706Z,986.56
2022-12-08T11:11:29.833Z,986.53
2022-12-08T11:12:29.811Z,986.54
2022-12-08T11:13:29.735Z,986.56
2022-12-08T11:16:26.883Z,986.58
2022-12-08T11:17:28.186Z,986.53
2022-12-08T11:18:28.482Z,986.50
2022-12-08T11:19:28.144Z,986.59
2022-12-08T11:20:28.137Z,986.48
2022-12-08T11:21:28.068Z,986.52
2022-12-08T11:23:47.568Z,986.51
2022-12-08T11:24:48.917Z,986.58
2022-12-08T11:26:22.201Z,986.54
2022-12-08T11:26:48.819Z,986.51
2022-12-08T11:27:48.827Z,986.46
2022-12-08T11:28:48.845Z,986.48
2022-12-08T11:29:48.815Z,986.51
2022-12-08T11:30:48.809Z,986.45
2022-12-08T11:31:49.045Z,986.42
2022-12-08T11:32:48.817Z,986.48
2022-12-08T11:33:48.770Z,986.46
2022-12-08T11:34:48.820Z,986.44
2022-12-08T11:35:48.718Z,986.46
2022-12-08T11:36:48.700Z,986.39
2022-12-08T11:37:48.712Z,986.43
2022-12-08T11:38:48.656Z,986.39
2022-12-08T11:39:48.660Z,986.43
2022-12-08T11:40:48.741Z,986.46
2022-12-08T11:41:48.796Z,986.41
2022-12-08T11:42:48.903Z,986.47
2022-12-08T11:43:48.816Z,986.41
2022-12-08T11:44:48.752Z,986.39
2022-12-08T11:47:47.352Z,986.36
2022-12-08T11:48:47.608Z,986.41
2022-12-08T11:50:48.126Z,986.45
2022-12-08T11:51:47.191Z,986.39
2022-12-08T11:52:47.143Z,986.43
2022-12-08T11:53:47.108Z,986.45
2022-12-08T11:54:47.141Z,986.38
2022-12-08T11:55:49.920Z,986.35
2022-12-08T11:56:48.145Z,986.35
2022-12-08T11:57:47.071Z,986.38
2022-12-08T11:59:18.958Z,986.35
2022-12-08T11:59:47.045Z,986.41
2022-12-08T12:00:46.917Z,986.30
2022-12-08T12:01:47.109Z,986.29
2022-12-08T12:02:47.057Z,986.32
2022-12-08T12:03:47.076Z,986.36
2022-12-08T12:04:47.040Z,986.35
2022-12-08T12:06:09.165Z,986.30
2022-12-08T12:06:56.027Z,986.31
2022-12-08T12:07:48.971Z,986.32
2022-12-08T12:12:02.270Z,986.35
2022-12-08T12:13:03.326Z,986.30
2022-12-08T12:14:03.340Z,986.28
2022-12-08T12:15:03.206Z,986.29
2022-12-08T12:16:03.155Z,986.25
2022-12-08T12:17:03.405Z,986.30
2022-12-08T12:18:03.180Z,986.30
2022-12-08T12:19:03.435Z,986.26
2022-12-08T12:20:03.511Z,986.28
2022-12-08T12:21:03.201Z,986.22
2022-12-08T12:22:03.316Z,986.28
2022-12-08T12:23:03.295Z,986.26
2022-12-08T12:24:03.260Z,986.23
2022-12-08T12:25:03.253Z,986.23
2022-12-08T12:26:03.254Z,986.22
2022-12-08T12:27:03.205Z,986.27
2022-12-08T12:28:03.259Z,986.32
2022-12-08T12:29:03.206Z,986.29
2022-12-08T12:30:03.223Z,986.27
2022-12-08T12:33:11.451Z,986.20
2022-12-08T12:34:12.732Z,986.21
2022-12-08T12:35:12.657Z,986.29
2022-12-08T12:36:12.633Z,986.20
2022-12-08T12:37:12.604Z,986.25
2022-12-08T12:38:12.551Z,986.23
2022-12-08T12:39:12.581Z,986.16
2022-12-08T12:40:12.740Z,986.24
2022-12-08T12:41:13.018Z,986.19
2022-12-08T15:59:20.848Z,986.83
2022-12-08T16:00:50.453Z,986.86
2022-12-08T16:01:21.931Z,986.85
2022-12-08T16:02:22.848Z,986.82
2022-12-08T16:03:59.382Z,986.76
2022-12-08T16:05:11.539Z,986.79
2022-12-08T16:07:22.324Z,986.78
2022-12-08T16:08:45.007Z,986.79
2022-12-08T16:09:21.734Z,986.70
2022-12-08T16:10:20.015Z,986.77
2022-12-08T16:12:04.643Z,986.77
2022-12-08T17:32:29.588Z,986.71
2022-12-08T17:33:30.397Z,986.70
2022-12-08T17:34:51.301Z,986.63
2022-12-08T17:35:30.419Z,986.65
2022-12-08T17:36:30.407Z,986.65
2022-12-08T17:37:30.597Z,986.61
2022-12-08T17:38:30.457Z,986.68
2022-12-08T17:39:30.579Z,986.67
2022-12-08T17:40:30.523Z,986.67
2022-12-08T17:41:30.524Z,986.61
2022-12-08T17:42:30.407Z,986.74
2022-12-08T18:04:41.569Z,986.89
2022-12-08T18:05:29.357Z,986.74
2022-12-08T18:06:31.220Z,986.86
2022-12-08T22:48:53.756Z,987.26
2022-12-08T22:49:27.658Z,987.15
2022-12-08T22:50:27.623Z,987.11
2022-12-08T22:51:27.766Z,987.19
2022-12-08T22:52:27.683Z,987.11
2022-12-08T22:53:27.632Z,987.10
2022-12-08T22:54:27.582Z,987.11
2022-12-08T22:55:27.517Z,987.07
2022-12-08T22:56:27.444Z,987.18
2022-12-08T22:57:27.480Z,987.14
2022-12-08T22:58:27.562Z,987.17
2022-12-08T22:59:27.632Z,987.11
2022-12-08T23:00:27.576Z,987.09
2022-12-08T23:01:27.457Z,987.11
2022-12-08T23:02:27.463Z,987.21
2022-12-08T23:03:27.514Z,987.14
2022-12-08T23:04:27.657Z,987.20
2022-12-08T23:05:27.596Z,987.14
2022-12-08T23:06:27.853Z,987.13
2022-12-08T23:07:27.653Z,987.19
2022-12-08T23:08:27.773Z,987.15
2022-12-08T23:09:27.648Z,987.22
2022-12-08T23:10:27.541Z,987.20
2022-12-08T23:11:27.649Z,987.16
2022-12-08T23:12:27.456Z,987.19
2022-12-08T23:13:28.506Z,987.21
2022-12-08T23:14:27.373Z,987.21
2022-12-08T23:15:27.348Z,987.20
2022-12-08T23:16:27.455Z,987.21
2022-12-08T23:17:27.407Z,987.20
2022-12-08T23:18:27.392Z,987.22
2022-12-08T23:19:27.367Z,987.20
2022-12-08T23:20:27.614Z,987.18
2022-12-08T23:21:27.630Z,987.22
2022-12-08T23:22:27.356Z,987.24
2022-12-08T23:23:49.190Z,987.20
2022-12-08T23:24:27.286Z,987.17
2022-12-08T23:25:27.328Z,987.13
2022-12-08T23:26:27.462Z,987.18
2022-12-08T23:27:27.495Z,987.11
2022-12-08T23:28:27.552Z,987.10
2022-12-08T23:29:27.384Z,987.06
2022-12-08T23:30:27.387Z,987.17
2022-12-08T23:31:27.500Z,987.07
2022-12-08T23:32:27.592Z,987.16
2022-12-08T23:34:27.214Z,987.17
2022-12-08T23:36:08.088Z,987.09
2022-12-08T23:36:27.350Z,987.19
2022-12-08T23:37:27.399Z,987.17
2022-12-08T23:38:27.205Z,987.13
2022-12-08T23:39:27.183Z,987.15
2022-12-08T23:40:27.243Z,987.10
2022-12-08T23:41:27.133Z,987.08
2022-12-08T23:42:27.412Z,987.16
2022-12-08T23:43:27.188Z,987.08
2022-12-08T23:44:27.262Z,987.07
2022-12-08T23:45:27.206Z,987.09
2022-12-08T23:46:27.380Z,987.11
2022-12-08T23:47:27.486Z,987.08
2022-12-08T23:48:27.464Z,987.08
2022-12-08T23:49:27.419Z,987.09
2022-12-08T23:50:27.207Z,987.11
2022-12-08T23:51:27.193Z,987.08
2022-12-08T23:52:27.198Z,987.09
2022-12-08T23:53:28.512Z,987.06
2022-12-08T23:54:28.811Z,987.08
2022-12-08T23:55:27.181Z,987.07
2022-12-08T23:56:30.447Z,987.03
2022-12-08T23:57:28.192Z,987.10
2022-12-08T23:58:27.012Z,987.07
2022-12-08T23:59:27.035Z,987.03
